Robert G. Stone, Jr. — WDD4596 — position and weather

sailwx.info

Track history (hours):
 
Tides and Currents Weather Stations Pressure Air Temp Water Temp Dewpoint Dewpoint Depression Visibility Wind Speed Wind Dir Waves Ship Positions

Robert G. Stone, Jr.

Owner: Kirby Inland Marine, LP, Houston, TX. More information available from US FCC via Universal Licensing System and Coast Guard Vessel Documentation Center.

Last reported at 2017-Feb-12 14:32 UTC. Time now 2017-Feb-25 12:03 UTC.
Position N 29°34' W 090°33'.
Warning: this ship's position is 12 days out of date.

Length 209 m; draft 2.7 m.

Type: . MMSI: 367146780.

Date/timePositionNaut miles runAvg speedWind from/ knotsBaromVisibWave heightAir tempDewpointWater temp
2017-Feb-12 14:32N 29°34' W 090°33'6 5.7
2017-Feb-12 13:33N 29°36' W 090°39'3 3.3
2017-Feb-12 12:33N 29°36' W 090°43'3 3.2
2017-Feb-12 11:33N 29°34' W 090°45'1 1.2
2017-Feb-12 10:33N 29°32' W 090°46'2 2.0
2017-Feb-12 09:33N 29°32' W 090°48'5 4.2
2017-Feb-12 08:25N 29°33' W 090°53'53 4.1
2017-Feb-11 19:20N 29°51' W 091°51'5 6.2
2017-Feb-11 18:33N 29°51' W 091°57'6 5.8
2017-Feb-11 17:33N 29°49' W 092°03'6 5.5
2017-Feb-11 16:33N 29°47' W 092°09'3 2.9
2017-Feb-11 15:33N 29°47' W 092°13'1 1.3
2017-Feb-11 14:33N 29°48' W 092°14'0 0.5
2017-Feb-11 13:33N 29°48' W 092°14'1 0.9
2017-Feb-11 12:33N 29°48' W 092°15'4 4.4
2017-Feb-11 11:33N 29°50' W 092°20'4 4.4
2017-Feb-11 10:33N 29°53' W 092°24'36 5.0
2017-Feb-11 03:25N 29°56' W 093°05'4 4.9
2017-Feb-11 02:33N 29°56' W 093°10'5 5.0
2017-Feb-11 01:33N 29°60' W 093°13'4 3.9
2017-Feb-11 00:33N 30°03' W 093°16'3 2.8
2017-Feb-10 23:33N 30°05' W 093°18'1 1.0
2017-Feb-10 22:33N 30°06' W 093°19'0 0.0
2017-Feb-10 21:33N 30°06' W 093°19'0 0.0
2017-Feb-10 20:33N 30°06' W 093°19'0 0.0
2017-Feb-10 19:33N 30°06' W 093°19'0 0.2
2017-Feb-10 18:33N 30°06' W 093°19'2 2.1
2017-Feb-10 17:33N 30°05' W 093°20'4 3.8
2017-Feb-10 16:33N 30°04' W 093°25'5 5.4
2017-Feb-10 15:33N 30°04' W 093°31'6 5.4
2017-Feb-10 14:31N 30°04' W 093°37'5 5.5
2017-Feb-10 13:33N 30°03' W 093°43'92 2.7
2017-Feb-09 03:24N 29°14' W 095°13'0 0.0
2017-Feb-09 02:33N 29°14' W 095°13'0 0.0
2017-Feb-08 23:32N 29°14' W 095°13'0 0.0
2017-Feb-08 22:33N 29°14' W 095°13'0 0.0
2017-Feb-08 21:28N 29°14' W 095°13'0 0.0
2017-Feb-08 19:18N 29°14' W 095°13'0 0.0
2017-Feb-08 18:27N 29°14' W 095°13'0 0.0
2017-Feb-08 17:28N 29°14' W 095°13'0 0.0
2017-Feb-08 16:25N 29°14' W 095°13'14 0.8
2017-Feb-07 23:34N 29°17' W 094°57'8 7.3
2017-Feb-07 22:29N 29°21' W 094°50'  
2017-Feb-03 15:31N 29°19' W 094°51'9 6.1
2017-Feb-03 14:04N 29°25' W 094°43'66 5.5
2017-Feb-03 02:04N 30°04' W 093°41'3 5.8
2017-Feb-03 01:33N 30°04' W 093°38'7 7.3
2017-Feb-03 00:33N 30°04' W 093°30'7 6.7
2017-Feb-02 23:34N 30°04' W 093°22'4 4.1
2017-Feb-02 22:34N 30°05' W 093°17'6 6.0
2017-Feb-02 21:34N 30°00' W 093°13'6 5.7
2017-Feb-02 20:33N 29°56' W 093°09'7 7.0
2017-Feb-02 19:32N 29°56' W 093°01'  
Track history (hours):
 
Tides and Currents Weather Stations Pressure Air Temp Water Temp Dewpoint Dewpoint Depression Visibility Wind Speed Wind Dir Waves Ship Positions

Robert G. Stone, Jr.

Owner: Kirby Inland Marine, LP, Houston, TX. More information available from US FCC via Universal Licensing System and Coast Guard Vessel Documentation Center.

Last reported at 2017-Feb-12 14:32 UTC. Time now 2017-Feb-25 12:03 UTC.
Position N 29°34' W 090°33'.
Warning: this ship's position is 12 days out of date.

Length 209 m; draft 2.7 m.

Type: . MMSI: 367146780.

Date/timePositionNaut miles runAvg speedWind from/ knotsBaromVisibWave heightAir tempDewpointWater temp
2017-Feb-12 14:32N 29°34' W 090°33'6 5.7
2017-Feb-12 13:33N 29°36' W 090°39'3 3.3
2017-Feb-12 12:33N 29°36' W 090°43'3 3.2
2017-Feb-12 11:33N 29°34' W 090°45'1 1.2
2017-Feb-12 10:33N 29°32' W 090°46'2 2.0
2017-Feb-12 09:33N 29°32' W 090°48'5 4.2
2017-Feb-12 08:25N 29°33' W 090°53'53 4.1
2017-Feb-11 19:20N 29°51' W 091°51'5 6.2
2017-Feb-11 18:33N 29°51' W 091°57'6 5.8
2017-Feb-11 17:33N 29°49' W 092°03'6 5.5
2017-Feb-11 16:33N 29°47' W 092°09'3 2.9
2017-Feb-11 15:33N 29°47' W 092°13'1 1.3
2017-Feb-11 14:33N 29°48' W 092°14'0 0.5
2017-Feb-11 13:33N 29°48' W 092°14'1 0.9
2017-Feb-11 12:33N 29°48' W 092°15'4 4.4
2017-Feb-11 11:33N 29°50' W 092°20'4 4.4
2017-Feb-11 10:33N 29°53' W 092°24'36 5.0
2017-Feb-11 03:25N 29°56' W 093°05'4 4.9
2017-Feb-11 02:33N 29°56' W 093°10'5 5.0
2017-Feb-11 01:33N 29°60' W 093°13'4 3.9
2017-Feb-11 00:33N 30°03' W 093°16'3 2.8
2017-Feb-10 23:33N 30°05' W 093°18'1 1.0
2017-Feb-10 22:33N 30°06' W 093°19'0 0.0
2017-Feb-10 21:33N 30°06' W 093°19'0 0.0
2017-Feb-10 20:33N 30°06' W 093°19'0 0.0
2017-Feb-10 19:33N 30°06' W 093°19'0 0.2
2017-Feb-10 18:33N 30°06' W 093°19'2 2.1
2017-Feb-10 17:33N 30°05' W 093°20'4 3.8
2017-Feb-10 16:33N 30°04' W 093°25'5 5.4
2017-Feb-10 15:33N 30°04' W 093°31'6 5.4
2017-Feb-10 14:31N 30°04' W 093°37'5 5.5
2017-Feb-10 13:33N 30°03' W 093°43'92 2.7
2017-Feb-09 03:24N 29°14' W 095°13'0 0.0
2017-Feb-09 02:33N 29°14' W 095°13'0 0.0
2017-Feb-08 23:32N 29°14' W 095°13'0 0.0
2017-Feb-08 22:33N 29°14' W 095°13'0 0.0
2017-Feb-08 21:28N 29°14' W 095°13'0 0.0
2017-Feb-08 19:18N 29°14' W 095°13'0 0.0
2017-Feb-08 18:27N 29°14' W 095°13'0 0.0
2017-Feb-08 17:28N 29°14' W 095°13'0 0.0
2017-Feb-08 16:25N 29°14' W 095°13'14 0.8
2017-Feb-07 23:34N 29°17' W 094°57'8 7.3
2017-Feb-07 22:29N 29°21' W 094°50'  
2017-Feb-03 15:31N 29°19' W 094°51'9 6.1
2017-Feb-03 14:04N 29°25' W 094°43'66 5.5
2017-Feb-03 02:04N 30°04' W 093°41'3 5.8
2017-Feb-03 01:33N 30°04' W 093°38'7 7.3
2017-Feb-03 00:33N 30°04' W 093°30'7 6.7
2017-Feb-02 23:34N 30°04' W 093°22'4 4.1
2017-Feb-02 22:34N 30°05' W 093°17'6 6.0
2017-Feb-02 21:34N 30°00' W 093°13'6 5.7
2017-Feb-02 20:33N 29°56' W 093°09'7 7.0
2017-Feb-02 19:32N 29°56' W 093°01'  

Dump ship's entire track history